sensor_id;sensor_type;location;lat;lon;timestamp;temperature;humidity
40287;DHT22;25998;46.604;13.610;2024-02-14T00:00:20;2.30;99.90
40287;DHT22;25998;46.604;13.610;2024-02-14T00:03:31;2.40;99.90
40287;DHT22;25998;46.604;13.610;2024-02-14T00:06:42;2.30;99.90
40287;DHT22;25998;46.604;13.610;2024-02-14T00:09:53;2.20;99.90
40287;DHT22;25998;46.604;13.610;2024-02-14T00:13:05;2.30;99.90
40287;DHT22;25998;46.604;13.610;2024-02-14T00:16:16;2.50;99.90
40287;DHT22;25998;46.604;13.610;2024-02-14T00:19:27;2.50;99.90
40287;DHT22;25998;46.604;13.610;2024-02-14T00:22:39;2.50;99.90
40287;DHT22;25998;46.604;13.610;2024-02-14T00:25:50;2.70;99.90
40287;DHT22;25998;46.604;13.610;2024-02-14T00:29:01;2.80;99.90
40287;DHT22;25998;46.604;13.610;2024-02-14T00:32:15;2.90;99.90
40287;DHT22;25998;46.604;13.610;2024-02-14T00:35:26;2.90;99.90
40287;DHT22;25998;46.604;13.610;2024-02-14T00:38:36;2.70;99.90
40287;DHT22;25998;46.604;13.610;2024-02-14T00:41:47;2.80;99.90
40287;DHT22;25998;46.604;13.610;2024-02-14T00:44:58;2.50;99.90
40287;DHT22;25998;46.604;13.610;2024-02-14T00:48:09;2.30;99.90
40287;DHT22;25998;46.604;13.610;2024-02-14T00:51:22;2.20;99.90
40287;DHT22;25998;46.604;13.610;2024-02-14T00:54:33;2.20;99.90
40287;DHT22;25998;46.604;13.610;2024-02-14T00:57:43;2.20;99.90
40287;DHT22;25998;46.604;13.610;2024-02-14T01:00:54;2.20;99.90
40287;DHT22;25998;46.604;13.610;2024-02-14T01:04:05;2.10;99.90
40287;DHT22;25998;46.604;13.610;2024-02-14T01:07:16;2.20;99.90
40287;DHT22;25998;46.604;13.610;2024-02-14T01:10:27;2.30;99.90
40287;DHT22;25998;46.604;13.610;2024-02-14T01:13:38;2.40;99.90
40287;DHT22;25998;46.604;13.610;2024-02-14T01:16:49;2.50;99.90
40287;DHT22;25998;46.604;13.610;2024-02-14T01:19:59;2.60;99.90
40287;DHT22;25998;46.604;13.610;2024-02-14T01:23:10;2.80;99.90
40287;DHT22;25998;46.604;13.610;2024-02-14T01:26:21;2.80;99.90
40287;DHT22;25998;46.604;13.610;2024-02-14T01:29:32;2.60;99.90
40287;DHT22;25998;46.604;13.610;2024-02-14T01:32:43;2.40;99.90
40287;DHT22;25998;46.604;13.610;2024-02-14T01:35:54;2.20;99.90
40287;DHT22;25998;46.604;13.610;2024-02-14T01:39:06;2.20;99.90
40287;DHT22;25998;46.604;13.610;2024-02-14T01:42:18;2.10;99.90
40287;DHT22;25998;46.604;13.610;2024-02-14T01:45:29;2.10;99.90
40287;DHT22;25998;46.604;13.610;2024-02-14T01:48:41;2.10;99.90
40287;DHT22;25998;46.604;13.610;2024-02-14T01:51:54;2.10;99.90
40287;DHT22;25998;46.604;13.610;2024-02-14T01:55:07;2.30;99.90
40287;DHT22;25998;46.604;13.610;2024-02-14T01:58:18;2.50;99.90
40287;DHT22;25998;46.604;13.610;2024-02-14T02:01:29;2.50;99.90
40287;DHT22;25998;46.604;13.610;2024-02-14T02:04:40;2.50;99.90
40287;DHT22;25998;46.604;13.610;2024-02-14T02:07:51;2.30;99.90
40287;DHT22;25998;46.604;13.610;2024-02-14T02:11:02;2.30;99.90
40287;DHT22;25998;46.604;13.610;2024-02-14T02:14:13;2.20;99.90
40287;DHT22;25998;46.604;13.610;2024-02-14T02:17:24;2.30;99.90
40287;DHT22;25998;46.604;13.610;2024-02-14T02:20:36;2.20;99.90
40287;DHT22;25998;46.604;13.610;2024-02-14T02:23:47;2.00;99.90
40287;DHT22;25998;46.604;13.610;2024-02-14T02:26:58;1.90;99.90
40287;DHT22;25998;46.604;13.610;2024-02-14T02:30:09;1.90;99.90
40287;DHT22;25998;46.604;13.610;2024-02-14T02:33:21;1.80;99.90
40287;DHT22;25998;46.604;13.610;2024-02-14T02:36:32;1.80;99.90
40287;DHT22;25998;46.604;13.610;2024-02-14T02:39:43;1.80;99.90
40287;DHT22;25998;46.604;13.610;2024-02-14T02:42:55;1.80;99.90
40287;DHT22;25998;46.604;13.610;2024-02-14T02:46:05;1.80;99.90
40287;DHT22;25998;46.604;13.610;2024-02-14T02:49:19;1.90;99.90
40287;DHT22;25998;46.604;13.610;2024-02-14T02:52:31;1.90;99.90
40287;DHT22;25998;46.604;13.610;2024-02-14T02:55:42;1.90;99.90
40287;DHT22;25998;46.604;13.610;2024-02-14T02:58:55;2.10;99.90
40287;DHT22;25998;46.604;13.610;2024-02-14T03:02:06;2.20;99.90
40287;DHT22;25998;46.604;13.610;2024-02-14T03:05:19;2.00;99.90
40287;DHT22;25998;46.604;13.610;2024-02-14T03:08:33;1.90;99.90
40287;DHT22;25998;46.604;13.610;2024-02-14T03:11:48;1.80;99.90
40287;DHT22;25998;46.604;13.610;2024-02-14T03:14:59;2.00;99.90
40287;DHT22;25998;46.604;13.610;2024-02-14T03:18:10;1.90;99.90
40287;DHT22;25998;46.604;13.610;2024-02-14T03:21:21;1.90;99.90
40287;DHT22;25998;46.604;13.610;2024-02-14T03:24:32;2.00;99.90
40287;DHT22;25998;46.604;13.610;2024-02-14T03:27:46;2.00;99.90
40287;DHT22;25998;46.604;13.610;2024-02-14T03:30:59;2.10;99.90
40287;DHT22;25998;46.604;13.610;2024-02-14T03:34:10;2.10;99.90
40287;DHT22;25998;46.604;13.610;2024-02-14T03:37:21;1.90;99.90
40287;DHT22;25998;46.604;13.610;2024-02-14T03:40:32;1.80;99.90
40287;DHT22;25998;46.604;13.610;2024-02-14T03:43:43;1.70;99.90
40287;DHT22;25998;46.604;13.610;2024-02-14T03:46:54;1.70;99.90
40287;DHT22;25998;46.604;13.610;2024-02-14T03:50:05;1.80;99.90
40287;DHT22;25998;46.604;13.610;2024-02-14T03:53:17;1.90;99.90
40287;DHT22;25998;46.604;13.610;2024-02-14T03:56:28;2.00;99.90
40287;DHT22;25998;46.604;13.610;2024-02-14T03:59:40;1.90;99.90
40287;DHT22;25998;46.604;13.610;2024-02-14T04:02:51;1.80;99.90
40287;DHT22;25998;46.604;13.610;2024-02-14T04:06:04;1.80;99.90
40287;DHT22;25998;46.604;13.610;2024-02-14T04:09:15;1.70;99.90
40287;DHT22;25998;46.604;13.610;2024-02-14T04:12:26;1.70;99.90
40287;DHT22;25998;46.604;13.610;2024-02-14T04:15:36;1.90;99.90
40287;DHT22;25998;46.604;13.610;2024-02-14T04:18:47;2.00;99.90
40287;DHT22;25998;46.604;13.610;2024-02-14T04:21:58;2.00;99.90
40287;DHT22;25998;46.604;13.610;2024-02-14T04:25:09;2.10;99.90
40287;DHT22;25998;46.604;13.610;2024-02-14T04:28:20;1.90;99.90
40287;DHT22;25998;46.604;13.610;2024-02-14T04:31:31;1.80;99.90
40287;DHT22;25998;46.604;13.610;2024-02-14T04:34:42;1.70;99.90
40287;DHT22;25998;46.604;13.610;2024-02-14T04:37:54;1.60;99.90
40287;DHT22;25998;46.604;13.610;2024-02-14T04:41:06;1.70;99.90
40287;DHT22;25998;46.604;13.610;2024-02-14T04:44:16;1.70;99.90
40287;DHT22;25998;46.604;13.610;2024-02-14T04:47:27;1.80;99.90
40287;DHT22;25998;46.604;13.610;2024-02-14T04:50:40;1.80;99.90
40287;DHT22;25998;46.604;13.610;2024-02-14T04:53:51;1.70;99.90
40287;DHT22;25998;46.604;13.610;2024-02-14T04:57:02;1.70;99.90
40287;DHT22;25998;46.604;13.610;2024-02-14T05:00:15;1.70;99.90
40287;DHT22;25998;46.604;13.610;2024-02-14T05:03:26;1.50;99.90
40287;DHT22;25998;46.604;13.610;2024-02-14T05:06:37;1.40;99.90
40287;DHT22;25998;46.604;13.610;2024-02-14T05:09:48;1.40;99.90
40287;DHT22;25998;46.604;13.610;2024-02-14T05:13:02;1.40;99.90
40287;DHT22;25998;46.604;13.610;2024-02-14T05:16:13;1.40;99.90
40287;DHT22;25998;46.604;13.610;2024-02-14T05:19:24;1.40;99.90
40287;DHT22;25998;46.604;13.610;2024-02-14T05:22:38;1.40;99.90
40287;DHT22;25998;46.604;13.610;2024-02-14T05:25:49;1.50;99.90
40287;DHT22;25998;46.604;13.610;2024-02-14T05:29:01;1.40;99.90
40287;DHT22;25998;46.604;13.610;2024-02-14T05:32:11;1.40;99.90
40287;DHT22;25998;46.604;13.610;2024-02-14T05:35:22;1.50;99.90
40287;DHT22;25998;46.604;13.610;2024-02-14T05:38:34;1.50;99.90
40287;DHT22;25998;46.604;13.610;2024-02-14T05:41:45;1.60;99.90
40287;DHT22;25998;46.604;13.610;2024-02-14T05:44:55;1.70;99.90
40287;DHT22;25998;46.604;13.610;2024-02-14T05:48:07;1.70;99.90
40287;DHT22;25998;46.604;13.610;2024-02-14T05:51:18;1.50;99.90
40287;DHT22;25998;46.604;13.610;2024-02-14T05:54:29;1.30;99.90
40287;DHT22;25998;46.604;13.610;2024-02-14T05:57:40;1.20;99.90
40287;DHT22;25998;46.604;13.610;2024-02-14T06:00:51;1.40;99.90
40287;DHT22;25998;46.604;13.610;2024-02-14T06:04:03;1.40;99.90
40287;DHT22;25998;46.604;13.610;2024-02-14T06:07:13;1.50;99.90
40287;DHT22;25998;46.604;13.610;2024-02-14T06:10:24;1.60;99.90
40287;DHT22;25998;46.604;13.610;2024-02-14T06:13:36;1.70;99.90
40287;DHT22;25998;46.604;13.610;2024-02-14T06:16:47;1.70;99.90
40287;DHT22;25998;46.604;13.610;2024-02-14T06:19:58;1.40;99.90
40287;DHT22;25998;46.604;13.610;2024-02-14T06:23:09;1.20;99.90
40287;DHT22;25998;46.604;13.610;2024-02-14T06:26:20;1.10;99.90
40287;DHT22;25998;46.604;13.610;2024-02-14T06:29:30;1.10;99.90
40287;DHT22;25998;46.604;13.610;2024-02-14T06:32:41;1.20;99.90
40287;DHT22;25998;46.604;13.610;2024-02-14T06:35:52;1.30;99.90
40287;DHT22;25998;46.604;13.610;2024-02-14T06:39:04;1.50;99.90
40287;DHT22;25998;46.604;13.610;2024-02-14T06:42:15;1.60;99.90
40287;DHT22;25998;46.604;13.610;2024-02-14T06:45:26;1.50;99.90
40287;DHT22;25998;46.604;13.610;2024-02-14T06:48:40;1.50;99.90
40287;DHT22;25998;46.604;13.610;2024-02-14T06:51:51;1.50;99.90
40287;DHT22;25998;46.604;13.610;2024-02-14T06:55:02;1.60;99.90
40287;DHT22;25998;46.604;13.610;2024-02-14T06:58:14;1.60;99.90
40287;DHT22;25998;46.604;13.610;2024-02-14T07:01:26;1.60;99.90
40287;DHT22;25998;46.604;13.610;2024-02-14T07:04:37;1.70;99.90
40287;DHT22;25998;46.604;13.610;2024-02-14T07:07:48;1.80;99.90
40287;DHT22;25998;46.604;13.610;2024-02-14T07:10:59;1.90;99.90
40287;DHT22;25998;46.604;13.610;2024-02-14T07:14:10;2.00;99.90
40287;DHT22;25998;46.604;13.610;2024-02-14T07:17:21;2.10;99.90
40287;DHT22;25998;46.604;13.610;2024-02-14T07:20:31;2.20;99.90
40287;DHT22;25998;46.604;13.610;2024-02-14T07:23:42;2.30;99.90
40287;DHT22;25998;46.604;13.610;2024-02-14T07:26:53;2.30;99.90
40287;DHT22;25998;46.604;13.610;2024-02-14T07:30:04;2.30;99.90
40287;DHT22;25998;46.604;13.610;2024-02-14T07:33:16;2.40;99.90
40287;DHT22;25998;46.604;13.610;2024-02-14T07:36:27;2.40;99.90
40287;DHT22;25998;46.604;13.610;2024-02-14T07:39:38;2.40;99.90
40287;DHT22;25998;46.604;13.610;2024-02-14T07:42:48;2.40;99.90
40287;DHT22;25998;46.604;13.610;2024-02-14T07:45:59;2.60;99.90
40287;DHT22;25998;46.604;13.610;2024-02-14T07:49:10;2.80;99.90
40287;DHT22;25998;46.604;13.610;2024-02-14T07:52:21;2.70;99.90
40287;DHT22;25998;46.604;13.610;2024-02-14T07:55:32;2.60;99.90
40287;DHT22;25998;46.604;13.610;2024-02-14T07:58:43;2.60;99.90
40287;DHT22;25998;46.604;13.610;2024-02-14T08:01:53;2.60;99.90
40287;DHT22;25998;46.604;13.610;2024-02-14T08:05:04;2.50;99.90
40287;DHT22;25998;46.604;13.610;2024-02-14T08:08:15;2.40;99.90
40287;DHT22;25998;46.604;13.610;2024-02-14T08:11:26;2.40;99.90
40287;DHT22;25998;46.604;13.610;2024-02-14T08:14:37;2.30;99.90
40287;DHT22;25998;46.604;13.610;2024-02-14T08:17:48;2.30;99.90
40287;DHT22;25998;46.604;13.610;2024-02-14T08:20:59;2.40;99.90
40287;DHT22;25998;46.604;13.610;2024-02-14T08:24:10;2.50;99.90
40287;DHT22;25998;46.604;13.610;2024-02-14T08:27:21;2.60;99.90
40287;DHT22;25998;46.604;13.610;2024-02-14T08:30:33;3.00;99.90
40287;DHT22;25998;46.604;13.610;2024-02-14T08:33:44;3.50;99.90
40287;DHT22;25998;46.604;13.610;2024-02-14T08:36:55;3.70;99.90
40287;DHT22;25998;46.604;13.610;2024-02-14T08:40:06;3.90;99.90
40287;DHT22;25998;46.604;13.610;2024-02-14T08:43:17;4.20;99.90
40287;DHT22;25998;46.604;13.610;2024-02-14T08:46:28;4.30;99.90
40287;DHT22;25998;46.604;13.610;2024-02-14T08:49:42;4.30;99.90
40287;DHT22;25998;46.604;13.610;2024-02-14T08:52:53;4.50;99.90
40287;DHT22;25998;46.604;13.610;2024-02-14T08:56:04;5.10;99.90
40287;DHT22;25998;46.604;13.610;2024-02-14T08:59:15;5.50;99.90
40287;DHT22;25998;46.604;13.610;2024-02-14T09:02:26;6.00;99.90
40287;DHT22;25998;46.604;13.610;2024-02-14T09:05:37;6.30;99.60
40287;DHT22;25998;46.604;13.610;2024-02-14T09:08:49;6.50;98.20
40287;DHT22;25998;46.604;13.610;2024-02-14T09:12:02;6.60;97.90
40287;DHT22;25998;46.604;13.610;2024-02-14T09:15:14;7.20;96.60
40287;DHT22;25998;46.604;13.610;2024-02-14T09:18:25;7.50;96.20
40287;DHT22;25998;46.604;13.610;2024-02-14T09:21:36;7.70;95.80
40287;DHT22;25998;46.604;13.610;2024-02-14T09:24:48;7.60;96.50
40287;DHT22;25998;46.604;13.610;2024-02-14T09:27:59;7.70;96.70
40287;DHT22;25998;46.604;13.610;2024-02-14T09:31:10;8.00;95.50
40287;DHT22;25998;46.604;13.610;2024-02-14T09:34:24;8.30;94.70
40287;DHT22;25998;46.604;13.610;2024-02-14T09:37:36;8.70;94.70
40287;DHT22;25998;46.604;13.610;2024-02-14T09:40:53;8.80;93.90
40287;DHT22;25998;46.604;13.610;2024-02-14T09:44:05;9.10;94.10
40287;DHT22;25998;46.604;13.610;2024-02-14T09:47:16;9.40;94.20
40287;DHT22;25998;46.604;13.610;2024-02-14T09:50:29;9.40;93.90
40287;DHT22;25998;46.604;13.610;2024-02-14T09:53:41;9.10;94.50
40287;DHT22;25998;46.604;13.610;2024-02-14T09:56:53;9.10;94.80
40287;DHT22;25998;46.604;13.610;2024-02-14T10:00:06;9.10;95.10
40287;DHT22;25998;46.604;13.610;2024-02-14T10:03:19;8.90;95.10
40287;DHT22;25998;46.604;13.610;2024-02-14T10:06:30;8.90;95.10
40287;DHT22;25998;46.604;13.610;2024-02-14T10:09:42;9.30;95.40
40287;DHT22;25998;46.604;13.610;2024-02-14T10:12:54;9.80;94.80
40287;DHT22;25998;46.604;13.610;2024-02-14T10:16:06;9.70;93.90
40287;DHT22;25998;46.604;13.610;2024-02-14T10:19:19;9.60;93.60
40287;DHT22;25998;46.604;13.610;2024-02-14T10:22:37;9.70;94.00
40287;DHT22;25998;46.604;13.610;2024-02-14T10:25:54;10.00;93.50
40287;DHT22;25998;46.604;13.610;2024-02-14T10:29:06;10.20;93.50
40287;DHT22;25998;46.604;13.610;2024-02-14T10:32:21;10.60;93.70
40287;DHT22;25998;46.604;13.610;2024-02-14T10:35:34;10.60;92.90
40287;DHT22;25998;46.604;13.610;2024-02-14T10:38:47;10.80;93.30
40287;DHT22;25998;46.604;13.610;2024-02-14T10:42:00;11.00;93.40
40287;DHT22;25998;46.604;13.610;2024-02-14T10:45:12;11.10;92.50
40287;DHT22;25998;46.604;13.610;2024-02-14T10:48:23;11.20;92.50
40287;DHT22;25998;46.604;13.610;2024-02-14T10:51:35;11.20;92.50
40287;DHT22;25998;46.604;13.610;2024-02-14T10:54:56;10.90;92.90
40287;DHT22;25998;46.604;13.610;2024-02-14T10:58:08;10.90;92.90
40287;DHT22;25998;46.604;13.610;2024-02-14T11:01:20;11.30;92.80
40287;DHT22;25998;46.604;13.610;2024-02-14T11:04:36;11.30;92.90
40287;DHT22;25998;46.604;13.610;2024-02-14T11:07:48;11.20;92.60
40287;DHT22;25998;46.604;13.610;2024-02-14T11:11:02;11.30;92.50
40287;DHT22;25998;46.604;13.610;2024-02-14T11:14:18;11.20;92.90
40287;DHT22;25998;46.604;13.610;2024-02-14T11:17:29;11.30;92.70
40287;DHT22;25998;46.604;13.610;2024-02-14T11:20:41;11.50;92.80
40287;DHT22;25998;46.604;13.610;2024-02-14T11:23:56;11.60;92.60
40287;DHT22;25998;46.604;13.610;2024-02-14T11:27:11;11.70;91.80
40287;DHT22;25998;46.604;13.610;2024-02-14T11:30:34;11.80;92.00
40287;DHT22;25998;46.604;13.610;2024-02-14T11:33:45;11.90;91.90
40287;DHT22;25998;46.604;13.610;2024-02-14T11:36:57;11.90;91.10
40287;DHT22;25998;46.604;13.610;2024-02-14T11:40:08;12.00;90.30
40287;DHT22;25998;46.604;13.610;2024-02-14T11:43:20;11.70;90.80
40287;DHT22;25998;46.604;13.610;2024-02-14T11:46:32;11.60;90.10
40287;DHT22;25998;46.604;13.610;2024-02-14T11:49:43;11.60;90.40
40287;DHT22;25998;46.604;13.610;2024-02-14T11:52:55;11.60;90.10
40287;DHT22;25998;46.604;13.610;2024-02-14T11:56:06;11.70;89.50
40287;DHT22;25998;46.604;13.610;2024-02-14T11:59:17;11.90;90.60
40287;DHT22;25998;46.604;13.610;2024-02-14T12:02:30;11.80;90.40
40287;DHT22;25998;46.604;13.610;2024-02-14T12:05:41;11.90;89.00
40287;DHT22;25998;46.604;13.610;2024-02-14T12:08:55;12.00;88.20
40287;DHT22;25998;46.604;13.610;2024-02-14T12:12:06;12.20;87.90
40287;DHT22;25998;46.604;13.610;2024-02-14T12:15:17;12.40;86.00
40287;DHT22;25998;46.604;13.610;2024-02-14T12:18:28;12.50;86.90
40287;DHT22;25998;46.604;13.610;2024-02-14T12:21:39;12.30;84.30
40287;DHT22;25998;46.604;13.610;2024-02-14T12:24:56;12.50;82.40
40287;DHT22;25998;46.604;13.610;2024-02-14T12:28:08;12.70;82.30
40287;DHT22;25998;46.604;13.610;2024-02-14T12:31:23;12.80;82.40
40287;DHT22;25998;46.604;13.610;2024-02-14T12:34:34;12.80;81.80
40287;DHT22;25998;46.604;13.610;2024-02-14T12:37:46;12.50;84.20
40287;DHT22;25998;46.604;13.610;2024-02-14T12:40:56;12.50;83.70
40287;DHT22;25998;46.604;13.610;2024-02-14T12:44:08;12.50;83.90
40287;DHT22;25998;46.604;13.610;2024-02-14T12:47:19;12.50;83.50
40287;DHT22;25998;46.604;13.610;2024-02-14T12:50:32;12.50;82.70
40287;DHT22;25998;46.604;13.610;2024-02-14T12:53:43;12.50;83.60
40287;DHT22;25998;46.604;13.610;2024-02-14T12:56:54;12.60;84.30
40287;DHT22;25998;46.604;13.610;2024-02-14T13:00:05;12.60;81.40
40287;DHT22;25998;46.604;13.610;2024-02-14T13:03:19;12.60;81.60
40287;DHT22;25998;46.604;13.610;2024-02-14T13:06:30;12.60;81.70
40287;DHT22;25998;46.604;13.610;2024-02-14T13:09:41;12.50;83.90
40287;DHT22;25998;46.604;13.610;2024-02-14T13:12:54;12.50;81.90
40287;DHT22;25998;46.604;13.610;2024-02-14T13:16:05;12.50;81.30
40287;DHT22;25998;46.604;13.610;2024-02-14T13:19:19;12.50;81.20
40287;DHT22;25998;46.604;13.610;2024-02-14T13:22:30;12.50;79.70
40287;DHT22;25998;46.604;13.610;2024-02-14T13:25:42;12.60;80.50
40287;DHT22;25998;46.604;13.610;2024-02-14T13:28:52;12.50;80.90
40287;DHT22;25998;46.604;13.610;2024-02-14T13:32:04;12.50;80.30
40287;DHT22;25998;46.604;13.610;2024-02-14T13:35:18;12.40;80.90
40287;DHT22;25998;46.604;13.610;2024-02-14T13:38:29;12.50;80.50
40287;DHT22;25998;46.604;13.610;2024-02-14T13:41:41;12.60;81.50
40287;DHT22;25998;46.604;13.610;2024-02-14T13:44:54;12.60;80.50
40287;DHT22;25998;46.604;13.610;2024-02-14T13:48:07;12.80;81.80
40287;DHT22;25998;46.604;13.610;2024-02-14T13:51:19;12.80;80.20
40287;DHT22;25998;46.604;13.610;2024-02-14T13:54:30;12.60;80.20
40287;DHT22;25998;46.604;13.610;2024-02-14T13:57:41;12.50;80.70
40287;DHT22;25998;46.604;13.610;2024-02-14T14:00:52;12.40;79.90
40287;DHT22;25998;46.604;13.610;2024-02-14T14:04:03;12.50;79.60
40287;DHT22;25998;46.604;13.610;2024-02-14T14:07:14;12.50;83.20
40287;DHT22;25998;46.604;13.610;2024-02-14T14:10:26;12.50;80.90
40287;DHT22;25998;46.604;13.610;2024-02-14T14:13:38;12.50;83.10
40287;DHT22;25998;46.604;13.610;2024-02-14T14:16:48;12.50;83.50
40287;DHT22;25998;46.604;13.610;2024-02-14T14:19:59;12.60;84.70
40287;DHT22;25998;46.604;13.610;2024-02-14T14:23:10;12.70;84.10
40287;DHT22;25998;46.604;13.610;2024-02-14T14:26:21;12.70;85.20
40287;DHT22;25998;46.604;13.610;2024-02-14T14:29:32;12.60;85.30
40287;DHT22;25998;46.604;13.610;2024-02-14T14:32:43;12.60;84.60
40287;DHT22;25998;46.604;13.610;2024-02-14T14:35:54;12.50;83.70
40287;DHT22;25998;46.604;13.610;2024-02-14T14:39:05;12.50;85.50
40287;DHT22;25998;46.604;13.610;2024-02-14T14:42:16;12.50;85.70
40287;DHT22;25998;46.604;13.610;2024-02-14T14:45:28;12.50;85.80
40287;DHT22;25998;46.604;13.610;2024-02-14T14:48:39;12.40;85.80
40287;DHT22;25998;46.604;13.610;2024-02-14T14:51:50;12.40;86.70
40287;DHT22;25998;46.604;13.610;2024-02-14T14:55:01;12.50;86.40
40287;DHT22;25998;46.604;13.610;2024-02-14T14:58:13;12.60;86.70
40287;DHT22;25998;46.604;13.610;2024-02-14T15:01:24;12.40;86.90
40287;DHT22;25998;46.604;13.610;2024-02-14T15:04:35;12.30;87.80
40287;DHT22;25998;46.604;13.610;2024-02-14T15:07:48;12.30;89.80
40287;DHT22;25998;46.604;13.610;2024-02-14T15:10:58;12.30;88.80
40287;DHT22;25998;46.604;13.610;2024-02-14T15:14:09;12.00;91.60
40287;DHT22;25998;46.604;13.610;2024-02-14T15:17:20;11.80;92.20
40287;DHT22;25998;46.604;13.610;2024-02-14T15:20:31;11.80;92.00
40287;DHT22;25998;46.604;13.610;2024-02-14T15:23:42;11.90;91.10
40287;DHT22;25998;46.604;13.610;2024-02-14T15:26:53;12.00;91.40
40287;DHT22;25998;46.604;13.610;2024-02-14T15:30:10;12.20;90.00
40287;DHT22;25998;46.604;13.610;2024-02-14T15:33:40;12.20;90.80
40287;DHT22;25998;46.604;13.610;2024-02-14T15:36:51;12.20;91.00
40287;DHT22;25998;46.604;13.610;2024-02-14T15:40:02;12.10;90.20
40287;DHT22;25998;46.604;13.610;2024-02-14T15:43:14;11.80;92.00
40287;DHT22;25998;46.604;13.610;2024-02-14T15:46:28;11.50;92.80
40287;DHT22;25998;46.604;13.610;2024-02-14T15:49:40;11.10;93.10
40287;DHT22;25998;46.604;13.610;2024-02-14T15:52:51;10.70;93.50
40287;DHT22;25998;46.604;13.610;2024-02-14T15:56:04;10.50;94.00
40287;DHT22;25998;46.604;13.610;2024-02-14T15:59:16;10.30;94.20
40287;DHT22;25998;46.604;13.610;2024-02-14T16:02:27;10.10;94.20
40287;DHT22;25998;46.604;13.610;2024-02-14T16:05:38;10.00;93.70
40287;DHT22;25998;46.604;13.610;2024-02-14T16:08:49;9.70;94.60
40287;DHT22;25998;46.604;13.610;2024-02-14T16:12:03;9.50;95.00
40287;DHT22;25998;46.604;13.610;2024-02-14T16:15:15;9.40;95.10
40287;DHT22;25998;46.604;13.610;2024-02-14T16:18:29;9.20;95.40
40287;DHT22;25998;46.604;13.610;2024-02-14T16:21:40;9.20;95.40
40287;DHT22;25998;46.604;13.610;2024-02-14T16:24:52;9.00;95.50
40287;DHT22;25998;46.604;13.610;2024-02-14T16:28:05;8.90;95.80
40287;DHT22;25998;46.604;13.610;2024-02-14T16:31:17;8.80;96.10
40287;DHT22;25998;46.604;13.610;2024-02-14T16:34:28;8.80;96.40
40287;DHT22;25998;46.604;13.610;2024-02-14T16:37:39;8.80;96.70
40287;DHT22;25998;46.604;13.610;2024-02-14T16:40:50;8.70;96.60
40287;DHT22;25998;46.604;13.610;2024-02-14T16:44:01;8.50;96.90
40287;DHT22;25998;46.604;13.610;2024-02-14T16:47:12;8.40;97.20
40287;DHT22;25998;46.604;13.610;2024-02-14T16:50:23;8.20;97.50
40287;DHT22;25998;46.604;13.610;2024-02-14T16:53:35;8.10;97.50
40287;DHT22;25998;46.604;13.610;2024-02-14T16:56:46;7.90;98.00
40287;DHT22;25998;46.604;13.610;2024-02-14T16:59:57;7.80;98.20
40287;DHT22;25998;46.604;13.610;2024-02-14T17:03:08;7.90;97.70
40287;DHT22;25998;46.604;13.610;2024-02-14T17:06:19;8.00;97.50
40287;DHT22;25998;46.604;13.610;2024-02-14T17:09:30;8.00;97.40
40287;DHT22;25998;46.604;13.610;2024-02-14T17:12:41;7.80;97.60
40287;DHT22;25998;46.604;13.610;2024-02-14T17:15:53;7.70;97.70
40287;DHT22;25998;46.604;13.610;2024-02-14T17:19:04;7.60;98.00
40287;DHT22;25998;46.604;13.610;2024-02-14T17:22:15;7.40;98.30
40287;DHT22;25998;46.604;13.610;2024-02-14T17:25:26;7.30;98.40
40287;DHT22;25998;46.604;13.610;2024-02-14T17:28:37;7.30;98.50
40287;DHT22;25998;46.604;13.610;2024-02-14T17:31:48;7.20;98.40
40287;DHT22;25998;46.604;13.610;2024-02-14T17:35:00;7.00;98.80
40287;DHT22;25998;46.604;13.610;2024-02-14T17:38:11;6.90;99.30
40287;DHT22;25998;46.604;13.610;2024-02-14T17:41:22;6.80;99.40
40287;DHT22;25998;46.604;13.610;2024-02-14T17:44:33;6.80;99.50
40287;DHT22;25998;46.604;13.610;2024-02-14T17:47:44;6.70;99.60
40287;DHT22;25998;46.604;13.610;2024-02-14T17:50:55;6.80;99.40
40287;DHT22;25998;46.604;13.610;2024-02-14T17:54:06;6.70;99.60
40287;DHT22;25998;46.604;13.610;2024-02-14T17:57:17;6.70;99.50
40287;DHT22;25998;46.604;13.610;2024-02-14T18:00:29;6.60;99.50
40287;DHT22;25998;46.604;13.610;2024-02-14T18:03:40;6.50;99.90
40287;DHT22;25998;46.604;13.610;2024-02-14T18:06:51;6.40;99.90
40287;DHT22;25998;46.604;13.610;2024-02-14T18:10:02;6.30;99.90
40287;DHT22;25998;46.604;13.610;2024-02-14T18:13:13;6.30;99.90
40287;DHT22;25998;46.604;13.610;2024-02-14T18:16:24;6.30;99.90
40287;DHT22;25998;46.604;13.610;2024-02-14T18:19:35;6.20;99.90
40287;DHT22;25998;46.604;13.610;2024-02-14T18:22:46;6.20;99.90
40287;DHT22;25998;46.604;13.610;2024-02-14T18:25:58;6.30;99.90
40287;DHT22;25998;46.604;13.610;2024-02-14T18:29:09;6.40;99.90
40287;DHT22;25998;46.604;13.610;2024-02-14T18:32:20;6.30;99.90
40287;DHT22;25998;46.604;13.610;2024-02-14T18:35:31;6.10;99.90
40287;DHT22;25998;46.604;13.610;2024-02-14T18:38:42;5.90;99.90
40287;DHT22;25998;46.604;13.610;2024-02-14T18:41:53;5.90;99.90
40287;DHT22;25998;46.604;13.610;2024-02-14T18:45:05;5.80;99.90
40287;DHT22;25998;46.604;13.610;2024-02-14T18:48:18;5.80;99.90
40287;DHT22;25998;46.604;13.610;2024-02-14T18:51:29;5.80;99.90
40287;DHT22;25998;46.604;13.610;2024-02-14T18:54:40;5.70;99.90
40287;DHT22;25998;46.604;13.610;2024-02-14T18:57:50;5.60;99.90
40287;DHT22;25998;46.604;13.610;2024-02-14T19:01:01;5.60;99.90
40287;DHT22;25998;46.604;13.610;2024-02-14T19:04:12;5.60;99.90
40287;DHT22;25998;46.604;13.610;2024-02-14T19:07:23;5.50;99.90
40287;DHT22;25998;46.604;13.610;2024-02-14T19:10:35;5.50;99.90
40287;DHT22;25998;46.604;13.610;2024-02-14T19:13:46;5.50;99.90
40287;DHT22;25998;46.604;13.610;2024-02-14T19:16:57;5.50;99.90
40287;DHT22;25998;46.604;13.610;2024-02-14T19:20:08;5.40;99.90
40287;DHT22;25998;46.604;13.610;2024-02-14T19:23:19;5.30;99.90
40287;DHT22;25998;46.604;13.610;2024-02-14T19:26:30;5.30;99.90
40287;DHT22;25998;46.604;13.610;2024-02-14T19:29:41;5.20;99.90
40287;DHT22;25998;46.604;13.610;2024-02-14T19:32:52;5.30;99.90
40287;DHT22;25998;46.604;13.610;2024-02-14T19:36:03;5.50;99.90
40287;DHT22;25998;46.604;13.610;2024-02-14T19:39:14;5.60;99.90
40287;DHT22;25998;46.604;13.610;2024-02-14T19:42:26;5.60;99.90
40287;DHT22;25998;46.604;13.610;2024-02-14T19:45:39;5.50;99.90
40287;DHT22;25998;46.604;13.610;2024-02-14T19:48:49;5.50;99.90
40287;DHT22;25998;46.604;13.610;2024-02-14T19:52:00;5.40;99.90
40287;DHT22;25998;46.604;13.610;2024-02-14T19:55:13;5.30;99.90
40287;DHT22;25998;46.604;13.610;2024-02-14T19:58:25;5.10;99.90
40287;DHT22;25998;46.604;13.610;2024-02-14T20:01:36;5.20;99.90
40287;DHT22;25998;46.604;13.610;2024-02-14T20:04:47;5.10;99.90